Time;durP1;ratioP1;P1;durP2;ratioP2;P2;SDS_P1;SDS_P2;PMS_P1;PMS_P2;Temp;Humidity;BMP_temperature;BMP_pressure;BME280_temperature;BME280_humidity;BME280_pressure;Samples;Min_cycle;Max_cycle;Signal;HPM_P1;HPM_P2
2023/08/18 00:01:32;;;;;;;4.00;1.20;;;;;;;16.47;87.26;101952.47;4904443;29;20308;-76
2023/08/18 00:03:58;;;;;;;2.50;1.50;;;;;;;16.46;87.54;101958.94;4908785;29;20044;-78
2023/08/18 00:06:23;;;;;;;3.25;1.50;;;;;;;16.43;87.42;101956.78;4904951;29;20036;-79
2023/08/18 00:08:49;;;;;;;;;;;;;;;16.43;87.72;101954.91;4896316;29;20063;-74
2023/08/18 00:11:16;;;;;;;3.40;1.42;;;;;;;16.42;87.31;101953.28;4872741;29;19923;-76
2023/08/18 00:13:41;;;;;;;3.78;1.50;;;;;;;16.43;87.24;101949.50;4892766;29;20040;-74
2023/08/18 00:16:07;;;;;;;4.68;2.00;;;;;;;16.42;87.45;101956.00;4886166;29;20110;-73
2023/08/18 00:18:32;;;;;;;2.30;1.20;;;;;;;16.42;87.36;101949.78;4905843;29;20036;-75
2023/08/18 00:20:58;;;;;;;3.35;1.55;;;;;;;16.40;87.66;101947.34;4890158;29;20075;-75
2023/08/18 00:23:25;;;;;;;;;;;;;;;16.40;88.50;101958.16;4907000;29;20095;-73
2023/08/18 00:25:50;;;;;;;2.55;1.13;;;;;;;16.36;88.54;101957.91;4895242;29;19923;-74
2023/08/18 00:28:16;;;;;;;9.05;1.60;;;;;;;16.37;88.54;101958.72;4910614;29;20044;-78
2023/08/18 00:30:43;;;;;;;2.35;1.40;;;;;;;16.34;88.88;101954.69;4892862;29;20060;-75
2023/08/18 00:33:08;;;;;;;;;;;;;;;16.32;87.96;101945.22;4894782;29;20095;-74
2023/08/18 00:35:34;;;;;;;2.25;1.23;;;;;;;16.30;88.35;101942.00;4913135;29;19923;-77
2023/08/18 00:38:00;;;;;;;5.53;1.60;;;;;;;16.29;88.14;101934.97;4895261;29;20044;-78
2023/08/18 00:40:28;;;;;;;4.28;1.23;;;;;;;16.28;87.98;101938.78;4899449;29;20082;-73
2023/08/18 00:42:54;;;;;;;;;;;;;;;16.29;88.45;101935.78;4926715;29;20119;-75
2023/08/18 00:45:21;;;;;;;2.75;1.50;;;;;;;16.25;88.68;101918.50;4903826;29;19923;-80
2023/08/18 00:47:47;;;;;;;5.15;1.30;;;;;;;16.25;89.71;101923.09;4904292;29;20035;-78
2023/08/18 00:50:14;;;;;;;4.57;1.70;;;;;;;16.24;88.94;101925.00;4893541;29;20033;-76
2023/08/18 00:52:42;;;;;;;2.65;1.38;;;;;;;16.25;88.81;101917.69;4895165;29;20215;-78
2023/08/18 00:55:09;;;;;;;3.05;1.50;;;;;;;16.23;88.87;101919.88;4888246;29;20032;-79
2023/08/18 00:57:36;;;;;;;3.15;1.40;;;;;;;16.21;89.11;101916.66;4914444;29;20097;-75
2023/08/18 01:00:02;;;;;;;4.47;1.83;;;;;;;16.23;89.03;101922.56;4895869;29;20040;-77
2023/08/18 01:02:29;;;;;;;4.78;1.40;;;;;;;16.22;88.68;101919.06;4888264;29;20036;-78
2023/08/18 01:05:00;;;;;;;3.28;1.40;;;;;;;16.23;89.01;101909.06;4881571;29;20032;-80
2023/08/18 01:07:26;;;;;;;4.38;1.20;;;;;;;16.24;89.25;101916.88;4925684;29;20039;-76
2023/08/18 01:09:53;;;;;;;3.45;1.30;;;;;;;16.23;89.56;101915.25;4899230;29;20035;-75
2023/08/18 01:12:33;;;;;;;3.95;1.70;;;;;;;16.23;89.22;101919.88;4922783;29;20087;-76
2023/08/18 01:15:14;;;;;;;5.65;1.60;;;;;;;16.24;88.82;101916.88;4909082;29;20047;-77
2023/08/18 01:17:49;;;;;;;2.28;1.50;;;;;;;16.23;88.71;101917.97;4912747;29;20051;-77
2023/08/18 01:20:15;;;;;;;4.10;1.70;;;;;;;16.23;89.24;101919.88;4873867;29;20044;-77
2023/08/18 01:22:44;;;;;;;3.05;1.40;;;;;;;16.23;89.09;101917.16;4875217;29;20044;-76
2023/08/18 01:25:12;;;;;;;2.42;1.50;;;;;;;16.27;89.07;101923.63;4898775;29;20086;-75
2023/08/18 01:27:38;;;;;;;4.07;1.83;;;;;;;16.27;89.56;101920.94;4898553;29;20047;-75
2023/08/18 01:30:04;;;;;;;4.20;1.70;;;;;;;16.26;89.20;101924.72;4900552;29;20151;-75
2023/08/18 01:32:35;;;;;;;5.10;1.70;;;;;;;16.26;90.01;101908.50;4927241;29;20047;-77
2023/08/18 01:35:03;;;;;;;4.18;1.50;;;;;;;16.27;89.62;101902.03;4903689;29;20100;-79
2023/08/18 01:37:30;;;;;;;3.80;1.40;;;;;;;16.28;89.74;101912.53;4896213;29;20070;-76
2023/08/18 01:39:58;;;;;;;3.08;1.67;;;;;;;16.28;89.64;101914.44;4895627;29;20581;-79
2023/08/18 01:42:25;;;;;;;4.80;1.63;;;;;;;16.30;89.94;101923.06;4910572;29;20072;-75
2023/08/18 01:44:51;;;;;;;5.05;1.63;;;;;;;16.31;89.58;101927.38;4906770;29;20035;-78
2023/08/18 01:47:17;;;;;;;5.20;2.17;;;;;;;16.30;89.78;101920.38;4907436;29;20043;-76
2023/08/18 01:49:44;;;;;;;;;;;;;;;16.31;90.06;101922.78;4876289;29;20040;-77
2023/08/18 01:52:11;;;;;;;4.40;2.10;;;;;;;16.28;89.89;101917.94;4897301;29;19922;-76
2023/08/18 01:54:36;;;;;;;4.75;1.95;;;;;;;16.30;90.19;101925.78;4898858;29;20040;-76
2023/08/18 01:57:02;;;;;;;5.68;1.63;;;;;;;16.31;90.30;101927.38;4912275;29;20051;-75
2023/08/18 01:59:28;;;;;;;5.03;1.75;;;;;;;16.32;90.33;101918.19;4923455;29;20565;-76
2023/08/18 02:01:55;;;;;;;;;;;;;;;16.32;90.63;101915.47;4892539;29;20049;-76
2023/08/18 02:04:21;;;;;;;5.57;2.28;;;;;;;16.30;90.92;101914.97;4893178;29;20029;-77
2023/08/18 02:06:46;;;;;;;4.97;1.80;;;;;;;16.28;90.73;101909.84;4882523;29;20043;-76
2023/08/18 02:09:14;;;;;;;5.93;2.20;;;;;;;16.31;90.43;101916.56;4887213;29;20502;-78
2023/08/18 02:11:40;;;;;;;4.25;1.98;;;;;;;16.32;90.56;101918.19;4895060;29;20486;-77
2023/08/18 02:14:07;;;;;;;3.00;1.67;;;;;;;16.33;90.66;101917.94;4877841;29;20040;-79
2023/08/18 02:16:33;;;;;;;3.92;1.42;;;;;;;16.31;90.87;101906.56;4892412;29;20725;-78
2023/08/18 02:18:58;;;;;;;;;;;;;;;16.34;91.00;101906.03;4912740;29;20624;-78
2023/08/18 02:21:30;;;;;;;3.78;1.48;;;;;;;16.30;91.20;101898.75;4899543;29;20123;-77
2023/08/18 02:23:56;;;;;;;6.57;2.08;;;;;;;16.29;91.68;101891.72;4895009;29;20131;-78
2023/08/18 02:26:21;;;;;;;;;;;;;;;16.28;91.54;101888.22;4878619;29;20042;-77
2023/08/18 02:28:47;;;;;;;3.80;1.50;;;;;;;16.27;91.48;101893.91;4885233;29;20373;-78
2023/08/18 02:31:12;;;;;;;4.43;2.10;;;;;;;16.28;91.65;101877.41;4915069;29;20035;-77
2023/08/18 02:33:38;;;;;;;4.78;1.83;;;;;;;16.27;91.52;101883.09;4897829;29;20032;-79
2023/08/18 02:36:04;;;;;;;3.83;1.83;;;;;;;16.28;91.57;101873.91;4889854;29;20128;-79
2023/08/18 02:38:33;;;;;;;5.28;2.00;;;;;;;16.26;91.67;101870.69;4892040;29;20568;-76
2023/08/18 02:40:59;;;;;;;5.35;1.90;;;;;;;16.28;91.69;101882.00;4913449;29;20050;-76
2023/08/18 02:43:25;;;;;;;;;;;;;;;16.27;92.12;101881.19;4892190;29;20048;-79
2023/08/18 02:45:57;;;;;;;5.18;1.88;;;;;;;16.24;92.04;101889.84;4897552;29;19919;-79
2023/08/18 02:48:27;;;;;;;7.03;2.13;;;;;;;16.24;92.03;101878.22;4898103;29;20047;-75
2023/08/18 02:51:08;;;;;;;4.95;2.03;;;;;;;16.24;91.94;101883.63;4901032;29;20032;-76
2023/08/18 02:53:37;;;;;;;3.95;1.85;;;;;;;16.23;92.38;101882.84;4892500;29;20062;-78
2023/08/18 02:56:02;;;;;;;4.28;2.13;;;;;;;16.20;92.42;101885.31;4880158;29;20032;-79
2023/08/18 02:58:30;;;;;;;7.57;1.85;;;;;;;16.18;92.66;101890.97;4911463;29;20032;-78
2023/08/18 03:01:00;;;;;;;3.58;1.70;;;;;;;16.17;93.01;101877.75;4903272;29;20064;-77
2023/08/18 03:03:26;;;;;;;3.20;2.00;;;;;;;16.17;92.90;101888.53;4887326;29;20405;-79
2023/08/18 03:05:52;;;;;;;4.63;1.88;;;;;;;16.15;92.73;101879.91;4891611;29;20169;-74
2023/08/18 03:08:18;;;;;;;5.43;2.53;;;;;;;16.17;92.63;101883.94;4927853;29;20035;-73
2023/08/18 03:10:44;;;;;;;6.32;2.50;;;;;;;16.16;92.56;101886.94;4907493;29;20039;-79
2023/08/18 03:13:10;;;;;;;3.88;1.98;;;;;;;16.11;93.48;101885.88;4887691;29;20620;-79
2023/08/18 03:15:40;;;;;;;7.75;2.25;;;;;;;16.10;93.07;101884.25;4878847;29;20052;-79
2023/08/18 03:18:09;;;;;;;5.72;2.17;;;;;;;16.06;93.39;101877.00;4874445;29;20135;-77
2023/08/18 03:20:36;;;;;;;5.20;2.13;;;;;;;16.03;93.29;101877.53;4892131;29;20031;-79
2023/08/18 03:23:02;;;;;;;5.95;1.80;;;;;;;16.02;93.28;101874.03;4896472;29;20086;-75
2023/08/18 03:25:28;;;;;;;;;;;;;;;16.00;93.46;101878.13;4902475;29;20498;-78
2023/08/18 03:27:54;;;;;;;3.70;2.15;;;;;;;15.94;93.54;101871.94;4904862;29;19925;-77
2023/08/18 03:30:19;;;;;;;;;;;;;;;15.95;94.01;101875.44;4884575;29;20036;-77
2023/08/18 03:32:47;;;;;;;6.97;2.70;;;;;;;15.89;93.84;101865.72;4899344;29;20017;-76
2023/08/18 03:35:13;;;;;;;3.40;2.60;;;;;;;15.87;93.92;101862.50;4891158;29;20063;-78
2023/08/18 03:37:39;;;;;;;4.20;2.55;;;;;;;15.81;93.83;101867.94;4897417;29;20094;-75
2023/08/18 03:40:05;;;;;;;;;;;;;;;15.80;94.13;101865.50;4893080;29;20048;-76
2023/08/18 03:42:31;;;;;;;5.00;2.15;;;;;;;15.76;94.36;101861.75;4894142;29;19919;-75
2023/08/18 03:44:57;;;;;;;3.58;2.00;;;;;;;15.75;94.36;101868.22;4896745;29;20090;-75
2023/08/18 03:47:23;;;;;;;3.97;2.25;;;;;;;15.73;94.27;101862.31;4877282;29;20108;-77
2023/08/18 03:49:49;;;;;;;;;;;;;;;15.70;94.46;101865.53;4874973;29;20036;-75
2023/08/18 03:52:16;;;;;;;4.05;2.10;;;;;;;15.63;94.61;101863.13;4885513;29;20519;-74
2023/08/18 03:54:41;;;;;;;7.40;2.70;;;;;;;15.65;94.79;101860.19;4907240;29;20578;-77
2023/08/18 03:57:07;;;;;;;5.82;2.85;;;;;;;15.62;95.25;101856.13;4888968;29;20036;-76
2023/08/18 03:59:33;;;;;;;6.18;2.50;;;;;;;15.62;95.36;101852.63;4874495;29;20060;-75
2023/08/18 04:01:58;;;;;;;5.15;2.72;;;;;;;15.62;95.69;101849.91;4880050;29;20040;-76
2023/08/18 04:04:25;;;;;;;6.78;3.28;;;;;;;15.60;95.44;101855.56;4877662;29;20486;-76
2023/08/18 04:06:50;;;;;;;7.68;2.50;;;;;;;15.59;95.54;101847.75;4880018;29;20044;-74
2023/08/18 04:09:16;;;;;;;7.65;2.60;;;;;;;15.59;95.57;101845.06;4917645;29;20745;-75
2023/08/18 04:11:43;;;;;;;7.60;3.00;;;;;;;15.55;96.10;101853.69;4884115;29;20400;-75
2023/08/18 04:14:10;;;;;;;7.80;2.70;;;;;;;15.53;95.91;101847.78;4906394;29;20035;-77
2023/08/18 04:16:37;;;;;;;4.45;2.63;;;;;;;15.53;95.99;101842.38;4901614;29;20040;-75
2023/08/18 04:19:04;;;;;;;6.57;3.67;;;;;;;15.57;96.88;101843.41;4899558;29;20378;-76
2023/08/18 04:21:31;;;;;;;8.13;3.15;;;;;;;15.57;96.68;101846.09;4880118;29;21043;-75
2023/08/18 04:23:57;;;;;;;6.40;3.45;;;;;;;15.59;96.85;101851.25;4903970;29;20082;-76
2023/08/18 04:26:23;;;;;;;;;;;;;;;15.64;97.23;101847.75;4895853;29;20056;-75
2023/08/18 04:28:52;;;;;;;7.78;3.80;;;;;;;15.64;97.60;101845.03;4912231;29;19915;-76
2023/08/18 04:31:20;;;;;;;7.90;4.68;;;;;;;15.68;97.51;101848.81;4910499;29;20036;-75
2023/08/18 04:33:50;;;;;;;7.15;3.60;;;;;;;15.72;97.52;101844.50;4879561;29;20040;-76
2023/08/18 04:36:17;;;;;;;8.50;4.20;;;;;;;15.73;97.55;101836.09;4894029;29;20119;-76
2023/08/18 04:38:43;;;;;;;10.18;4.20;;;;;;;15.76;97.48;101835.53;4906619;29;20039;-73
2023/08/18 04:41:17;;;;;;;8.35;5.05;;;;;;;15.80;97.70;101841.19;4875530;29;20040;-75
2023/08/18 04:43:43;;;;;;;10.20;4.00;;;;;;;15.83;97.46;101846.03;4879027;29;20043;-75
2023/08/18 04:46:09;;;;;;;9.27;5.38;;;;;;;15.87;97.82;101851.72;4892779;29;20035;-74
2023/08/18 04:48:35;;;;;;;12.07;5.15;;;;;;;15.88;97.68;101848.72;4893995;29;20124;-80
2023/08/18 04:51:03;;;;;;;10.73;5.38;;;;;;;15.95;97.76;101854.63;4894687;29;20391;-73
2023/08/18 04:53:29;;;;;;;10.40;5.57;;;;;;;15.97;97.69;101847.03;4895162;29;20553;-77
2023/08/18 04:55:55;;;;;;;11.43;5.57;;;;;;;16.02;97.34;101851.63;4909544;29;20476;-78
2023/08/18 04:58:21;;;;;;;9.35;5.05;;;;;;;16.04;97.43;101850.25;4896013;29;20960;-76
2023/08/18 05:00:47;;;;;;;9.45;5.03;;;;;;;16.08;97.36;101858.63;4894307;29;20038;-76
2023/08/18 05:03:14;;;;;;;8.48;5.47;;;;;;;16.11;97.26;101853.44;4878804;29;20036;-76
2023/08/18 05:05:57;;;;;;;9.57;5.88;;;;;;;16.12;97.24;101848.84;4914127;29;20032;-77
2023/08/18 05:08:24;;;;;;;14.55;6.57;;;;;;;16.18;97.37;101852.31;4886204;29;20044;-76
2023/08/18 05:10:50;;;;;;;9.00;5.75;;;;;;;16.23;97.41;101846.91;4907319;29;20091;-77
2023/08/18 05:13:16;;;;;;;10.32;5.30;;;;;;;16.25;96.96;101852.81;4890645;29;20119;-74
2023/08/18 05:15:42;;;;;;;14.05;6.55;;;;;;;16.29;96.81;101856.59;4909926;29;20036;-78
2023/08/18 05:18:07;;;;;;;10.32;5.82;;;;;;;16.32;96.77;101853.31;4878545;29;20129;-75
2023/08/18 05:20:33;;;;;;;8.73;5.28;;;;;;;16.31;96.97;101849.81;4910762;29;20526;-74
2023/08/18 05:22:58;;;;;;;14.00;6.22;;;;;;;16.34;96.53;101856.56;4907598;29;20125;-78
2023/08/18 05:25:24;;;;;;;9.48;6.40;;;;;;;16.37;96.63;101854.09;4913581;29;20032;-77
2023/08/18 05:27:50;;;;;;;13.27;6.72;;;;;;;16.42;96.44;101852.44;4919143;29;20123;-77
2023/08/18 05:30:17;;;;;;;;;;;;;;;16.41;96.48;101854.34;4890196;29;20047;-78
2023/08/18 05:32:43;;;;;;;12.80;6.43;;;;;;;16.44;96.53;101858.38;4911401;29;19957;-78
2023/08/18 05:35:11;;;;;;;12.32;5.70;;;;;;;16.45;96.37;101852.69;4894796;29;20495;-77
2023/08/18 05:37:36;;;;;;;10.93;6.20;;;;;;;16.49;96.50;101853.72;4891745;29;20040;-76
2023/08/18 05:40:02;;;;;;;8.15;5.35;;;;;;;16.53;96.46;101859.41;4894594;29;20769;-78
2023/08/18 05:42:29;;;;;;;11.98;6.10;;;;;;;16.54;96.71;101851.00;4895858;29;20032;-78
2023/08/18 05:44:55;;;;;;;9.73;5.90;;;;;;;16.57;96.55;101861.25;4876083;29;20751;-76
2023/08/18 05:47:20;;;;;;;12.30;5.50;;;;;;;16.61;96.50;101867.72;4875842;29;20050;-78
2023/08/18 05:49:46;;;;;;;8.07;5.72;;;;;;;16.64;96.44;101864.44;4902829;29;20039;-77
2023/08/18 05:52:11;;;;;;;11.93;6.07;;;;;;;16.63;96.13;101864.72;4886567;29;20046;-79
2023/08/18 05:54:37;;;;;;;12.73;6.68;;;;;;;16.68;96.28;101866.59;4894562;29;20060;-76
2023/08/18 05:57:03;;;;;;;;;;;;;;;16.70;95.95;101867.94;4900252;29;20043;-72
2023/08/18 05:59:35;;;;;;;9.85;6.30;;;;;;;16.71;95.75;101861.44;4907104;29;19915;-77
2023/08/18 06:02:02;;;;;;;9.52;6.13;;;;;;;16.75;95.92;101856.28;4905399;29;20070;-75
2023/08/18 06:04:28;;;;;;;10.35;6.35;;;;;;;16.78;95.69;101855.69;4891090;29;20730;-75
2023/08/18 06:06:54;;;;;;;11.48;6.20;;;;;;;16.81;95.53;101855.13;4904053;29;20040;-75
2023/08/18 06:09:19;;;;;;;9.45;6.53;;;;;;;16.84;95.57;101865.38;4893501;29;20127;-75
2023/08/18 06:11:46;;;;;;;9.10;6.22;;;;;;;16.82;95.19;101857.56;4893891;29;20036;-73
2023/08/18 06:14:12;;;;;;;12.23;6.70;;;;;;;16.88;95.36;101866.44;4878543;29;20047;-77
2023/08/18 06:16:37;;;;;;;9.88;6.15;;;;;;;16.90;95.25;101864.25;4888453;29;20044;-77
2023/08/18 06:19:04;;;;;;;11.70;6.60;;;;;;;16.97;95.00;101870.13;4912957;29;20102;-74
2023/08/18 06:21:30;;;;;;;9.77;6.68;;;;;;;16.95;94.70;101863.41;4890351;29;20036;-77
2023/08/18 06:23:56;;;;;;;10.40;6.55;;;;;;;16.97;95.24;101859.31;4880931;29;20101;-77
2023/08/18 06:26:21;;;;;;;10.05;5.85;;;;;;;17.01;94.75;101860.38;4909863;29;20095;-76
2023/08/18 06:28:47;;;;;;;11.05;5.80;;;;;;;17.01;94.73;101854.94;4875247;29;20046;-75
2023/08/18 06:31:14;;;;;;;11.60;6.50;;;;;;;17.06;94.89;101867.59;4899664;29;20407;-77
2023/08/18 06:33:40;;;;;;;11.95;6.70;;;;;;;17.09;95.02;101851.63;4883750;29;20523;-77
2023/08/18 06:36:06;;;;;;;10.82;6.97;;;;;;;17.10;94.82;101869.47;4899456;29;20118;-77
2023/08/18 06:38:31;;;;;;;9.60;7.03;;;;;;;17.13;94.94;101866.16;4907476;29;20469;-75
2023/08/18 06:40:57;;;;;;;8.43;6.38;;;;;;;17.13;94.73;101862.66;4892083;29;20032;-77
2023/08/18 06:43:22;;;;;;;11.57;6.43;;;;;;;17.16;94.62;101860.19;4890253;29;20047;-77
2023/08/18 06:45:49;;;;;;;11.50;7.38;;;;;;;17.21;94.51;101867.47;4908962;29;20035;-76
2023/08/18 06:48:15;;;;;;;11.88;7.07;;;;;;;17.24;94.28;101875.00;4893064;29;20055;-76
2023/08/18 06:50:42;;;;;;;12.07;7.05;;;;;;;17.26;93.62;101872.81;4884840;29;20100;-78
2023/08/18 06:53:08;;;;;;;12.63;7.20;;;;;;;17.27;94.51;101873.63;4907395;29;20036;-79
2023/08/18 06:55:33;;;;;;;12.43;6.70;;;;;;;17.33;94.77;101869.75;4879227;29;20046;-77
2023/08/18 06:57:59;;;;;;;12.43;7.43;;;;;;;17.35;94.27;101864.88;4905971;29;20425;-75
2023/08/18 07:00:24;;;;;;;11.25;7.75;;;;;;;17.41;94.51;101863.75;4906925;29;20070;-75
2023/08/18 07:02:50;;;;;;;10.60;7.35;;;;;;;17.41;93.81;101866.44;4892091;29;20368;-76
2023/08/18 07:05:19;;;;;;;9.40;6.40;;;;;;;17.44;93.49;101863.94;4908973;29;20492;-76
2023/08/18 07:07:46;;;;;;;11.95;7.35;;;;;;;17.48;93.63;101858.78;4908057;29;20521;-76
2023/08/18 07:10:12;;;;;;;8.95;7.00;;;;;;;17.51;93.91;101869.03;4894720;29;20047;-77
2023/08/18 07:12:37;;;;;;;11.32;7.28;;;;;;;17.53;93.21;101869.53;4885425;29;20507;-76
2023/08/18 07:15:04;;;;;;;9.43;6.50;;;;;;;17.57;93.51;101872.47;4912429;29;20039;-77
2023/08/18 07:17:30;;;;;;;9.95;7.65;;;;;;;17.57;93.19;101883.31;4891100;29;20127;-79
2023/08/18 07:19:55;;;;;;;9.45;7.45;;;;;;;17.56;92.98;101882.50;4892160;29;20094;-78
2023/08/18 07:22:21;;;;;;;10.68;6.80;;;;;;;17.57;93.02;101884.13;4879365;29;20040;-77
2023/08/18 07:24:46;;;;;;;10.32;6.40;;;;;;;17.58;92.93;101882.22;4894451;29;20036;-79
2023/08/18 07:27:12;;;;;;;10.88;7.32;;;;;;;17.61;92.88;101882.47;4893115;29;20040;-78
2023/08/18 07:29:37;;;;;;;9.15;6.55;;;;;;;17.63;93.04;101890.28;4876985;29;20128;-76
2023/08/18 07:32:03;;;;;;;;;;;;;;;17.64;92.96;101892.69;4903815;29;20110;-76
2023/08/18 07:34:28;;;;;;;12.25;7.35;;;;;;;17.66;93.08;101887.78;4890428;29;19922;-79
2023/08/18 07:36:54;;;;;;;8.15;6.72;;;;;;;17.70;92.57;101882.63;4893465;29;20101;-77
2023/08/18 07:39:20;;;;;;;;;;;;;;;17.71;92.94;101890.47;4896878;29;20088;-78
2023/08/18 07:41:45;;;;;;;12.35;6.60;;;;;;;17.73;93.15;101885.56;4908356;29;20065;-76
2023/08/18 07:44:11;;;;;;;;;;;;;;;17.78;93.40;101887.41;4908160;29;20043;-75
2023/08/18 07:46:38;;;;;;;14.65;8.13;;;;;;;17.79;93.35;101882.81;4892834;29;20055;-78
2023/08/18 07:49:03;;;;;;;11.90;8.73;;;;;;;17.78;92.70;101890.13;4912943;23;20087;-78
2023/08/18 07:51:30;;;;;;;11.45;7.20;;;;;;;17.85;92.77;101889.78;4879291;29;20473;-80
2023/08/18 07:53:56;;;;;;;9.85;7.75;;;;;;;17.88;92.36;101883.75;4907756;29;20039;-80
2023/08/18 07:56:21;;;;;;;11.13;7.50;;;;;;;17.87;92.36;101882.16;4905703;29;20032;-78
2023/08/18 07:58:47;;;;;;;11.13;7.82;;;;;;;17.90;92.31;101876.97;4902586;29;20428;-78
2023/08/18 08:01:12;;;;;;;8.98;7.28;;;;;;;17.92;92.01;101884.81;4907772;29;20078;-77
2023/08/18 08:03:38;;;;;;;8.98;7.43;;;;;;;17.95;92.21;101884.22;4892893;29;20040;-80
2023/08/18 08:06:06;;;;;;;8.35;7.05;;;;;;;17.96;92.23;101877.72;4905356;29;20036;-79
2023/08/18 08:08:33;;;;;;;10.13;8.00;;;;;;;17.92;91.46;101879.38;4893400;29;20040;-78
2023/08/18 08:10:59;;;;;;;10.30;7.88;;;;;;;17.92;91.32;101882.09;4920800;29;20039;-79
2023/08/18 08:13:25;;;;;;;11.65;7.60;;;;;;;17.98;91.77;101889.88;4893666;29;20042;-79
2023/08/18 08:15:51;;;;;;;9.23;7.72;;;;;;;18.02;92.00;101884.69;4906360;29;20111;-79
2023/08/18 08:18:18;;;;;;;10.50;7.65;;;;;;;18.05;91.56;101883.28;4902275;29;20398;-79
2023/08/18 08:20:44;;;;;;;12.45;8.63;;;;;;;18.07;91.17;101887.31;4893523;29;20116;-79
2023/08/18 08:23:10;;;;;;;12.65;8.60;;;;;;;18.10;91.80;101885.94;4910269;29;20047;-79
2023/08/18 08:25:37;;;;;;;9.82;7.93;;;;;;;18.15;91.56;101888.53;4906265;29;20040;-81
2023/08/18 08:28:03;;;;;;;10.90;7.30;;;;;;;18.19;91.60;101884.97;4901554;29;20039;-80
2023/08/18 08:30:29;;;;;;;9.85;7.50;;;;;;;18.22;91.80;101886.28;4889000;29;20048;-81
2023/08/18 08:32:54;;;;;;;11.70;7.97;;;;;;;18.23;90.93;101888.72;4905092;29;20048;-80
2023/08/18 08:35:21;;;;;;;8.18;6.68;;;;;;;18.28;91.50;101890.53;4907913;29;20035;-78
2023/08/18 08:37:48;;;;;;;9.93;7.57;;;;;;;18.31;91.14;101883.72;4903993;29;20032;-79
2023/08/18 08:40:18;;;;;;;10.85;8.20;;;;;;;18.34;90.93;101891.25;4901409;29;20048;-79
2023/08/18 08:42:45;;;;;;;10.15;7.90;;;;;;;18.35;91.23;101892.88;4891398;29;20134;-79
2023/08/18 08:45:11;;;;;;;11.43;8.00;;;;;;;18.40;91.04;101884.66;4904182;29;20039;-77
2023/08/18 08:47:38;;;;;;;11.25;8.10;;;;;;;18.45;90.45;101890.81;4907563;29;20036;-82
2023/08/18 08:50:06;;;;;;;9.60;7.82;;;;;;;18.51;90.67;101894.28;4909517;29;20040;-80
2023/08/18 08:52:37;;;;;;;10.32;8.25;;;;;;;18.55;90.54;101892.56;4909029;29;20050;-81
2023/08/18 08:55:04;;;;;;;10.55;7.75;;;;;;;18.58;90.15;101897.41;4924795;29;20040;-82
2023/08/18 08:57:29;;;;;;;9.68;8.25;;;;;;;18.64;89.70;101898.94;4912451;29;20041;-80
2023/08/18 08:59:55;;;;;;;9.50;7.28;;;;;;;18.63;89.33;101891.09;4906517;29;20066;-81
2023/08/18 09:02:21;;;;;;;9.73;7.65;;;;;;;18.72;89.88;101895.59;4880567;29;20131;-81
2023/08/18 09:04:47;;;;;;;10.00;8.50;;;;;;;18.80;89.77;101894.91;4893191;29;20031;-80
2023/08/18 09:07:13;;;;;;;9.85;8.05;;;;;;;18.81;88.64;101893.78;4903065;29;20124;-82
2023/08/18 09:09:40;;;;;;;10.02;9.00;;;;;;;18.90;89.35;101884.97;4908572;29;20458;-82
2023/08/18 09:12:08;;;;;;;11.82;9.63;;;;;;;19.01;89.62;101889.13;4878600;29;20849;-83
2023/08/18 09:14:35;;;;;;;12.57;8.98;;;;;;;19.07;88.45;101885.22;4912151;29;20036;-81
2023/08/18 09:17:04;;;;;;;10.50;8.57;;;;;;;19.06;87.95;101879.00;4891777;29;20092;-79
2023/08/18 09:19:30;;;;;;;12.68;8.75;;;;;;;19.18;87.37;101878.50;4910215;29;20103;-82
2023/08/18 09:21:57;;;;;;;12.75;8.52;;;;;;;19.23;87.26;101875.69;4895946;29;20084;-83
2023/08/18 09:24:23;;;;;;;10.07;7.75;;;;;;;19.30;87.15;101865.22;4895765;29;20067;-82
2023/08/18 09:26:49;;;;;;;10.18;8.27;;;;;;;19.43;87.15;101857.38;4909800;29;20071;-82
2023/08/18 09:29:14;;;;;;;10.35;7.95;;;;;;;19.53;86.42;101862.63;4878835;29;20517;-81
2023/08/18 09:31:40;;;;;;;13.13;8.43;;;;;;;19.70;86.31;101849.25;4906986;29;20048;-82
2023/08/18 09:34:06;;;;;;;10.52;8.20;;;;;;;19.87;85.74;101846.69;4894423;29;20508;-82
2023/08/18 09:36:32;;;;;;;11.55;9.18;;;;;;;20.00;85.45;101849.69;4894637;29;20117;-82
2023/08/18 09:39:03;;;;;;;9.30;7.68;;;;;;;20.11;85.61;101837.47;4919820;29;20090;-82
2023/08/18 09:41:29;;;;;;;12.80;9.15;;;;;;;20.22;84.18;101836.13;4905379;29;20402;-82
2023/08/18 09:43:54;;;;;;;10.93;9.05;;;;;;;20.30;84.46;101843.53;4906997;29;20589;-82
2023/08/18 09:46:24;;;;;;;10.65;8.60;;;;;;;20.43;83.98;101844.59;4907638;29;20130;-82
2023/08/18 09:48:52;;;;;;;8.50;7.53;;;;;;;20.52;83.53;101839.25;4859364;29;20132;-82
2023/08/18 09:51:20;;;;;;;10.82;7.78;;;;;;;20.49;83.12;101834.44;4896194;29;20063;-80
2023/08/18 09:53:56;;;;;;;8.85;7.53;;;;;;;20.67;83.32;101830.72;4906346;29;20040;-82
2023/08/18 09:56:27;;;;;;;11.13;6.25;;;;;;;20.76;83.48;101820.66;4894192;29;20044;-80
2023/08/18 09:59:17;;;;;;;11.60;8.25;;;;;;;20.95;83.18;101826.69;4908592;29;20568;-77
2023/08/18 10:01:44;;;;;;;10.65;7.35;;;;;;;21.01;82.60;101830.09;4889975;29;20491;-80
2023/08/18 10:04:10;;;;;;;13.57;7.78;;;;;;;21.09;81.30;101831.25;4921912;29;20040;-83
2023/08/18 10:06:39;;;;;;;9.32;8.30;;;;;;;21.15;81.39;101810.91;4902302;29;20024;-80
2023/08/18 10:09:05;;;;;;;9.77;7.05;;;;;;;21.22;81.34;101814.00;4902223;29;20072;-82
2023/08/18 10:11:34;;;;;;;10.35;8.80;;;;;;;21.20;80.17;101818.94;4887476;29;20032;-80
2023/08/18 10:14:00;;;;;;;9.57;6.72;;;;;;;21.14;81.17;101817.50;4921808;29;20116;-78
2023/08/18 10:16:27;;;;;;;8.35;7.03;;;;;;;21.21;81.23;101809.66;4919301;29;20052;-78
2023/08/18 10:18:56;;;;;;;8.52;7.60;;;;;;;21.17;81.36;101814.13;4902306;29;20051;-81
2023/08/18 10:21:28;;;;;;;10.93;7.32;;;;;;;21.18;81.78;101808.34;4895334;29;20036;-81
2023/08/18 10:23:55;;;;;;;8.70;6.63;;;;;;;21.27;82.48;101811.13;4899952;29;20040;-79
2023/08/18 10:26:24;;;;;;;8.68;7.45;;;;;;;21.45;81.91;101801.88;4900898;29;20040;-80
2023/08/18 10:28:51;;;;;;;10.23;7.50;;;;;;;21.42;80.14;101805.25;4904843;29;20043;-80
2023/08/18 10:31:19;;;;;;;10.27;6.90;;;;;;;21.46;81.04;101803.50;4899654;29;20037;-80
2023/08/18 10:33:50;;;;;;;9.10;7.72;;;;;;;21.58;80.98;101802.88;4901249;29;20180;-79
2023/08/18 10:36:25;;;;;;;9.57;6.20;;;;;;;21.74;80.59;101803.22;4919887;29;20067;-79
2023/08/18 10:38:54;;;;;;;9.30;8.38;;;;;;;21.86;79.67;101806.09;4907142;29;20048;-79
2023/08/18 10:41:28;;;;;;;8.63;7.72;;;;;;;22.04;79.35;101796.00;4890645;29;20048;-78
2023/08/18 10:43:57;;;;;;;8.00;6.97;;;;;;;22.13;78.99;101799.56;4884666;29;20572;-79
2023/08/18 10:46:34;;;;;;;9.38;7.40;;;;;;;22.26;80.09;101804.03;4900964;29;20032;-80
2023/08/18 10:49:00;;;;;;;10.68;8.05;;;;;;;22.35;78.72;101801.28;4886219;29;20059;-81
2023/08/18 10:51:27;;;;;;;10.88;6.78;;;;;;;22.48;79.43;101796.78;4896613;29;20482;-81
2023/08/18 10:53:53;;;;;;;8.40;6.32;;;;;;;22.56;78.41;101801.44;4875889;29;20043;-86
2023/08/18 10:56:19;;;;;;;8.65;7.80;;;;;;;22.65;78.97;101791.28;4909950;29;20395;-82
2023/08/18 10:58:44;;;;;;;10.95;7.60;;;;;;;22.73;77.24;101795.13;4923667;29;20104;-83
2023/08/18 11:01:11;;;;;;;8.43;6.25;;;;;;;22.84;78.25;101796.38;4890085;29;20684;-81
2023/08/18 11:03:40;;;;;;;8.23;5.57;;;;;;;22.92;77.36;101787.38;4895537;29;20119;-85
2023/08/18 11:06:06;;;;;;;9.50;6.68;;;;;;;22.97;77.01;101789.91;4896821;29;20054;-84
2023/08/18 11:08:32;;;;;;;8.07;6.57;;;;;;;23.02;76.30;101786.97;4899229;29;20490;-85
2023/08/18 11:10:58;;;;;;;7.38;5.88;;;;;;;23.11;77.34;101790.50;4910321;29;20190;-83
2023/08/18 11:13:25;;;;;;;11.25;6.70;;;;;;;23.12;75.96;101785.81;4931162;29;20481;-84
2023/08/18 11:15:52;;;;;;;8.13;7.32;;;;;;;23.26;77.21;101785.59;4898961;29;20506;-83
2023/08/18 11:18:20;;;;;;;9.13;6.13;;;;;;;23.32;76.02;101778.81;4910955;29;20118;-84
2023/08/18 11:20:46;;;;;;;9.75;6.57;;;;;;;23.36;75.46;101777.78;4898564;29;20185;-85
2023/08/18 11:23:11;;;;;;;7.65;6.85;;;;;;;23.45;75.42;101772.28;4911160;29;20562;-85
2023/08/18 11:25:37;;;;;;;7.93;6.00;;;;;;;23.59;76.69;101770.09;4912382;29;20063;-85